»·PEaware :: FSLCD KSNA-KCRQ

FSLCD :: KSNA-KCRQ

FLIGHT INFORMATION

Flight Status: Arrived
Operator: Unknown
More flights by this operator :: More flights under this callsign
Pilot: Gopalakrishna S. (22834)
Aircraft: ROBIN DR-400
(DR40)
More flights by this aircraft type
Origin: KSNA John Wayne-Orange Co
United States
Destination: KCRQ McClellan-Palomar
United States
More flights between these airports :: More routes between these airports
Route: +V23 OCN
File this flight plan on PilotEdge
Remarks: simple flight plan
Altitude:
(Current/Filed)
5,000ft
Speed:
(Current/Filed)
125kts
Departed: 09-Feb-19 09:33 AM
Arrived: 09-Feb-19 10:10 AM
Distance/Time
Traveled:
44nm/0:37
Distance/Time
To Go:
Arrived

Flight Plot

Page will automatically refresh every two minutes.


Map Options




Map Legend


Flown Route
Filed Route
Departure Airport
Arrival Airport
Navaid (VOR, NDB)
Fix

Horizontal Profiles

Position Reports

Time Latitude Longitude Heading Altitude Ground
Speed
09-Feb-19 09:22 33.666705 -117.871853 316 52ft 0kts
09-Feb-19 09:23 33.666705 -117.871853 316 52ft 0kts
09-Feb-19 09:24 33.666705 -117.871853 316 52ft 0kts
09-Feb-19 09:25 33.666705 -117.871853 316 52ft 0kts
09-Feb-19 09:26 33.666705 -117.871853 316 52ft 0kts
09-Feb-19 09:27 33.666778 -117.871937 315 52ft 5kts
09-Feb-19 09:28 33.670387 -117.869658 39 49ft 25kts
09-Feb-19 09:29 33.675234 -117.866400 28 45ft 19kts
09-Feb-19 09:30 33.679980 -117.863674 308 39ft 0kts
09-Feb-19 09:31 33.679980 -117.863674 308 39ft 0kts
09-Feb-19 09:32 33.679048 -117.864848 207 39ft 53kts
09-Feb-19 09:33 33.657007 -117.873197 186 1179ft 99kts
09-Feb-19 09:34 33.629118 -117.877487 186 2470ft 103kts
09-Feb-19 09:35 33.602272 -117.875143 119 3774ft 103kts
09-Feb-19 09:36 33.591183 -117.843035 111 4966ft 112kts
09-Feb-19 09:37 33.572241 -117.807969 131 5000ft 132kts
09-Feb-19 09:38 33.547452 -117.775105 131 4999ft 133kts
09-Feb-19 09:39 33.522962 -117.742633 131 4999ft 129kts
09-Feb-19 09:40 33.498813 -117.710686 133 4999ft 129kts
09-Feb-19 09:41 33.470719 -117.683900 145 4999ft 129kts
09-Feb-19 09:42 33.444561 -117.655871 135 4999ft 124kts
09-Feb-19 09:43 33.419734 -117.627236 135 4999ft 124kts
09-Feb-19 09:44 33.395170 -117.598902 135 4997ft 114kts
09-Feb-19 09:45 33.372903 -117.573210 135 4999ft 109kts
09-Feb-19 09:46 33.351073 -117.548021 135 4999ft 108kts
09-Feb-19 09:47 33.328927 -117.522469 135 5001ft 115kts
09-Feb-19 09:48 33.305559 -117.495504 135 5000ft 117kts
09-Feb-19 09:49 33.282672 -117.467594 132 4999ft 117kts
09-Feb-19 09:50 33.260373 -117.439013 132 4999ft 117kts
09-Feb-19 09:51 33.247787 -117.405786 101 4999ft 108kts
09-Feb-19 09:52 33.241187 -117.368786 101 5000ft 117kts
09-Feb-19 09:53 33.234337 -117.330353 101 4999ft 118kts
09-Feb-19 09:54 33.227476 -117.291826 101 4999ft 118kts
09-Feb-19 09:55 33.220630 -117.253357 101 4999ft 118kts
09-Feb-19 09:56 33.213803 -117.214960 101 4999ft 118kts
09-Feb-19 09:57 33.207109 -117.177256 101 4561ft 110kts
09-Feb-19 09:58 33.201314 -117.144441 101 3999ft 92kts
09-Feb-19 09:59 33.195842 -117.113599 101 4000ft 95kts
09-Feb-19 10:00 33.190294 -117.082309 101 4000ft 97kts
09-Feb-19 10:01 33.184405 -117.051113 119 3994ft 90kts
09-Feb-19 10:02 33.167040 -117.057688 248 3492ft 68kts
09-Feb-19 10:03 33.159753 -117.087346 256 3501ft 106kts
09-Feb-19 10:04 33.153653 -117.122351 256 2861ft 110kts
09-Feb-19 10:05 33.147841 -117.158227 259 2334ft 119kts
09-Feb-19 10:06 33.141303 -117.199230 259 1646ft 123kts
09-Feb-19 10:07 33.135889 -117.232801 258 1055ft 103kts
09-Feb-19 10:08 33.131385 -117.260246 259 593ft 80kts
09-Feb-19 10:09 33.128522 -117.278422 251 308ft 24kts
09-Feb-19 10:10 33.127436 -117.276605 164 308ft 8kts
09-Feb-19 10:11 33.127315 -117.276287 78 307ft 0kts

Navigation Log

Ident Type
Flight plan parsing failed, navigation log unavailable